createdAt,value
2019-04-19T00:00:56.020Z,98.04
2019-04-19T00:03:24.241Z,97.89
2019-04-19T00:05:54.013Z,97.88
2019-04-19T00:08:37.328Z,99.23
2019-04-19T00:11:06.543Z,99.95
2019-04-19T00:13:23.916Z,100.00
2019-04-19T00:15:52.523Z,99.22
2019-04-19T00:18:23.318Z,99.09
2019-04-19T00:21:14.907Z,99.34
2019-04-19T00:23:31.116Z,100.00
2019-04-19T00:25:53.659Z,100.00
2019-04-19T00:28:32.237Z,100.00
2019-04-19T00:31:04.374Z,100.00
2019-04-19T00:33:32.052Z,100.00
2019-04-19T00:35:53.702Z,100.00
2019-04-19T00:38:38.243Z,100.00
2019-04-19T00:41:13.639Z,100.00
2019-04-19T00:43:51.022Z,100.00
2019-04-19T00:46:24.809Z,100.00
2019-04-19T00:48:52.553Z,100.00
2019-04-19T00:51:17.493Z,100.00
2019-04-19T00:53:46.488Z,100.00
2019-04-19T00:56:15.292Z,100.00
2019-04-19T00:58:42.715Z,100.00
2019-04-19T01:01:14.326Z,100.00
2019-04-19T01:03:43.634Z,100.00
2019-04-19T01:06:13.523Z,100.00
2019-04-19T01:08:50.876Z,100.00
2019-04-19T01:11:24.890Z,100.00
2019-04-19T01:13:55.831Z,100.00
2019-04-19T01:16:21.217Z,100.00
2019-04-19T01:18:49.828Z,100.00
2019-04-19T01:21:09.660Z,100.00
2019-04-19T01:23:42.233Z,100.00
2019-04-19T01:26:10.694Z,100.00
2019-04-19T01:28:39.950Z,100.00
2019-04-19T01:31:13.530Z,100.00
2019-04-19T01:33:41.583Z,100.00
2019-04-19T01:36:08.863Z,100.00
2019-04-19T01:38:43.585Z,100.00
2019-04-19T01:41:20.870Z,100.00
2019-04-19T01:43:56.460Z,100.00
2019-04-19T01:46:43.564Z,100.00
2019-04-19T01:49:15.272Z,100.00
2019-04-19T01:51:51.632Z,100.00
2019-04-19T01:54:38.366Z,100.00
2019-04-19T01:56:55.670Z,100.00
2019-04-19T01:59:24.772Z,100.00
2019-04-19T02:01:58.127Z,100.00
2019-04-19T02:04:26.183Z,100.00
2019-04-19T02:06:52.851Z,100.00
2019-04-19T02:09:31.563Z,100.00
2019-04-19T02:12:11.665Z,100.00
2019-04-19T02:14:37.501Z,100.00
2019-04-19T02:17:04.453Z,100.00
2019-04-19T02:19:31.909Z,100.00
2019-04-19T02:22:07.603Z,100.00
2019-04-19T02:24:37.342Z,100.00
2019-04-19T02:27:04.837Z,100.00
2019-04-19T02:29:32.068Z,100.00
2019-04-19T02:32:31.124Z,100.00
2019-04-19T02:34:54.295Z,100.00
2019-04-19T02:37:37.756Z,100.00
2019-04-19T02:40:02.383Z,100.00
2019-04-19T02:45:08.278Z,100.00
2019-04-19T02:47:38.479Z,100.00
2019-04-19T02:50:11.266Z,100.00
2019-04-19T02:52:33.251Z,100.00
2019-04-19T02:55:04.732Z,100.00
2019-04-19T02:57:36.381Z,100.00
2019-04-19T03:02:54.230Z,100.00
2019-04-19T03:07:24.114Z,100.00
2019-04-19T03:09:53.681Z,100.00
2019-04-19T03:12:43.894Z,100.00
2019-04-19T03:15:06.963Z,100.00
2019-04-19T03:17:43.334Z,100.00
2019-04-19T03:20:10.866Z,100.00
2019-04-19T03:22:39.778Z,100.00
2019-04-19T03:25:12.345Z,100.00
2019-04-19T03:27:37.124Z,100.00
2019-04-19T03:30:09.279Z,100.00
2019-04-19T03:33:05.163Z,100.00
2019-04-19T03:35:06.686Z,100.00
2019-04-19T03:37:44.024Z,100.00
2019-04-19T03:42:44.933Z,100.00
2019-04-19T03:45:12.859Z,100.00
2019-04-19T03:47:53.021Z,100.00
2019-04-19T03:50:15.652Z,100.00
2019-04-19T03:52:42.588Z,100.00
2019-04-19T03:55:13.198Z,100.00
2019-04-19T03:57:41.472Z,100.00
2019-04-19T03:59:58.426Z,100.00
2019-04-19T04:02:31.778Z,100.00
2019-04-19T04:05:02.614Z,100.00
2019-04-19T04:07:29.435Z,100.00
2019-04-19T04:10:01.017Z,100.00
2019-04-19T04:12:41.315Z,100.00
2019-04-19T04:15:15.522Z,100.00
2019-04-19T04:17:33.398Z,100.00
2019-04-19T04:20:03.134Z,100.00
2019-04-19T04:22:37.346Z,100.00
2019-04-19T04:25:12.647Z,100.00
2019-04-19T04:27:47.562Z,100.00
2019-04-19T04:30:15.754Z,100.00
2019-04-19T04:32:50.585Z,100.00
2019-04-19T04:35:19.383Z,100.00
2019-04-19T04:37:44.753Z,100.00
2019-04-19T04:40:04.179Z,100.00
2019-04-19T04:42:40.491Z,100.00
2019-04-19T04:45:38.707Z,100.00
2019-04-19T04:47:53.325Z,100.00
2019-04-19T04:50:50.548Z,100.00
2019-04-19T04:53:03.061Z,100.00
2019-04-19T04:55:44.955Z,100.00
2019-04-19T04:58:18.581Z,100.00
2019-04-19T05:00:48.246Z,100.00
2019-04-19T05:03:34.356Z,100.00
2019-04-19T05:06:04.105Z,100.00
2019-04-19T05:08:30.813Z,93.89
2019-04-19T05:11:01.068Z,91.29
2019-04-19T05:13:46.572Z,90.96
2019-04-19T05:15:58.365Z,90.42
2019-04-19T05:18:29.461Z,89.67
2019-04-19T05:20:56.007Z,87.06
2019-04-19T05:23:30.368Z,84.59
2019-04-19T05:26:01.103Z,81.63
2019-04-19T05:28:27.494Z,79.74
2019-04-19T05:30:49.817Z,77.69
2019-04-19T05:33:23.681Z,75.46
2019-04-19T05:36:04.373Z,71.40
2019-04-19T05:38:44.916Z,69.27
2019-04-19T05:41:02.533Z,68.35
2019-04-19T05:44:11.140Z,67.21
2019-04-19T05:46:34.929Z,67.34
2019-04-19T05:48:49.205Z,68.15
2019-04-19T05:51:33.888Z,65.87
2019-04-19T05:53:46.671Z,64.61
2019-04-19T05:56:11.597Z,66.25
2019-04-19T05:58:52.726Z,69.23
2019-04-19T06:01:30.441Z,71.30
2019-04-19T06:03:58.842Z,73.12
2019-04-19T06:06:33.660Z,71.75
2019-04-19T06:08:42.439Z,73.07
2019-04-19T06:11:16.144Z,72.99
2019-04-19T06:13:44.076Z,70.09
2019-04-19T06:16:29.103Z,72.79
2019-04-19T06:18:55.004Z,76.23
2019-04-19T06:21:27.393Z,80.56
2019-04-19T06:24:05.587Z,81.05
2019-04-19T06:26:56.592Z,80.88
2019-04-19T06:29:06.426Z,80.05
2019-04-19T06:31:35.115Z,81.57
2019-04-19T06:34:06.548Z,80.83
2019-04-19T06:36:15.810Z,81.52
2019-04-19T06:38:44.664Z,79.75
2019-04-19T06:41:18.284Z,79.88
2019-04-19T06:43:56.642Z,77.31
2019-04-19T06:46:29.072Z,77.24
2019-04-19T06:48:55.220Z,78.88
2019-04-19T06:51:24.437Z,75.39
2019-04-19T06:53:50.035Z,75.01
2019-04-19T06:56:20.204Z,72.01
2019-04-19T06:58:51.755Z,72.58
2019-04-19T07:01:25.831Z,72.09
2019-04-19T07:03:44.916Z,71.07
2019-04-19T07:06:28.433Z,70.08
2019-04-19T07:09:07.301Z,68.96
2019-04-19T07:11:31.332Z,69.48
2019-04-19T07:13:54.395Z,65.94
2019-04-19T07:16:37.071Z,67.82
2019-04-19T07:18:56.098Z,65.13
2019-04-19T07:21:33.531Z,64.06
2019-04-19T07:24:14.936Z,64.84
2019-04-19T07:26:33.781Z,61.98
2019-04-19T07:28:45.321Z,62.48
2019-04-19T07:31:15.135Z,61.81
2019-04-19T07:33:55.026Z,61.40
2019-04-19T07:36:36.182Z,60.37
2019-04-19T07:39:05.945Z,58.88
2019-04-19T07:41:33.484Z,58.27
2019-04-19T07:44:02.754Z,58.12
2019-04-19T07:46:39.859Z,57.63
2019-04-19T07:48:53.482Z,56.33
2019-04-19T07:51:28.592Z,55.83
2019-04-19T07:53:54.624Z,55.32
2019-04-19T07:56:37.178Z,54.84
2019-04-19T07:59:22.330Z,54.19
2019-04-19T08:02:01.561Z,51.80
2019-04-19T08:04:39.864Z,52.04
2019-04-19T08:06:49.955Z,52.16
2019-04-19T08:09:18.910Z,52.25
2019-04-19T08:11:58.888Z,51.53
2019-04-19T08:14:35.760Z,51.72
2019-04-19T08:17:29.195Z,52.27
2019-04-19T08:29:06.666Z,49.98
2019-04-19T08:31:25.367Z,50.03
2019-04-19T08:33:54.978Z,48.87
2019-04-19T08:36:31.086Z,49.50
2019-04-19T08:39:15.131Z,47.38
2019-04-19T08:41:41.578Z,46.57
2019-04-19T08:44:10.220Z,45.65
2019-04-19T08:46:28.302Z,45.84
2019-04-19T08:49:02.365Z,46.35
2019-04-19T08:51:35.737Z,46.37
2019-04-19T08:54:29.787Z,47.15
2019-04-19T08:56:44.236Z,45.08
2019-04-19T08:59:28.239Z,44.63
2019-04-19T09:01:57.644Z,44.61
2019-04-19T09:04:23.706Z,44.80
2019-04-19T09:07:30.516Z,44.93
2019-04-19T09:09:25.840Z,44.06
2019-04-19T09:11:57.947Z,44.05
2019-04-19T09:17:05.771Z,41.54
2019-04-19T09:19:42.477Z,41.72
2019-04-19T09:21:48.455Z,43.20
2019-04-19T09:24:12.852Z,42.88
2019-04-19T09:26:57.746Z,41.24
2019-04-19T09:29:50.763Z,39.24
2019-04-19T09:31:53.594Z,40.12
2019-04-19T09:34:18.709Z,38.59
2019-04-19T09:36:57.774Z,38.16
2019-04-19T09:39:31.215Z,38.11
2019-04-19T09:41:52.499Z,37.58
2019-04-19T09:44:24.209Z,37.93
2019-04-19T09:46:44.933Z,36.30
2019-04-19T09:49:25.399Z,37.19
2019-04-19T09:51:58.696Z,36.74
2019-04-19T09:54:38.678Z,38.37
2019-04-19T09:56:59.681Z,36.79
2019-04-19T09:59:22.351Z,36.17
2019-04-19T10:01:49.896Z,34.93
2019-04-19T10:04:14.789Z,34.84
2019-04-19T10:06:44.695Z,35.73
2019-04-19T10:09:19.885Z,34.88
2019-04-19T10:11:46.394Z,36.13
2019-04-19T10:14:15.173Z,34.82
2019-04-19T10:16:51.069Z,34.69
2019-04-19T10:19:20.896Z,34.79
2019-04-19T10:21:51.971Z,34.74
2019-04-19T10:24:22.544Z,34.85
2019-04-19T10:26:52.633Z,34.30
2019-04-19T10:29:27.137Z,36.19
2019-04-19T10:31:54.082Z,32.87
2019-04-19T10:34:23.115Z,33.75
2019-04-19T10:36:54.195Z,33.06
2019-04-19T10:39:25.863Z,32.73
2019-04-19T10:41:54.451Z,34.23
2019-04-19T10:44:25.261Z,33.27
2019-04-19T10:46:54.323Z,31.88
2019-04-19T10:49:33.399Z,32.19
2019-04-19T10:52:00.674Z,31.69
2019-04-19T10:54:29.151Z,32.14
2019-04-19T10:57:14.567Z,31.17
2019-04-19T10:59:43.224Z,32.07
2019-04-19T11:02:11.694Z,31.80
2019-04-19T11:04:40.628Z,32.69
2019-04-19T11:07:09.967Z,33.57
2019-04-19T11:09:39.558Z,32.22
2019-04-19T11:12:08.621Z,33.18
2019-04-19T11:14:37.049Z,31.89
2019-04-19T11:17:07.443Z,32.35
2019-04-19T11:19:52.163Z,31.99
2019-04-19T11:22:06.167Z,32.53
2019-04-19T11:24:34.599Z,32.29
2019-04-19T11:27:03.411Z,30.80
2019-04-19T11:29:32.187Z,31.36
2019-04-19T11:32:06.046Z,32.26
2019-04-19T11:34:35.497Z,31.87
2019-04-19T11:37:05.336Z,31.59
2019-04-19T11:39:35.008Z,31.40
2019-04-19T11:42:03.509Z,31.49
2019-04-19T11:44:32.816Z,31.95
2019-04-19T11:47:03.487Z,32.99
2019-04-19T11:49:36.961Z,31.85
2019-04-19T11:52:03.204Z,31.81
2019-04-19T11:54:32.541Z,30.59
2019-04-19T11:57:09.196Z,31.75
2019-04-19T11:59:46.730Z,31.31
2019-04-19T12:02:27.090Z,30.24
2019-04-19T12:04:55.549Z,31.04
2019-04-19T12:07:24.284Z,30.52
2019-04-19T12:09:52.861Z,29.92
2019-04-19T12:12:21.292Z,32.33
2019-04-19T12:14:50.158Z,32.99
2019-04-19T12:17:18.639Z,30.54
2019-04-19T12:19:55.054Z,30.44
2019-04-19T12:22:17.263Z,30.45
2019-04-19T12:24:47.521Z,30.31
2019-04-19T12:27:15.912Z,29.77
2019-04-19T12:29:48.080Z,30.61
2019-04-19T12:32:15.063Z,30.16
2019-04-19T12:34:44.609Z,30.08
2019-04-19T12:37:13.432Z,30.39
2019-04-19T12:39:43.150Z,31.05
2019-04-19T12:42:13.569Z,30.65
2019-04-19T12:44:42.108Z,31.65
2019-04-19T12:47:11.020Z,31.10
2019-04-19T12:49:50.959Z,29.65
2019-04-19T12:52:10.180Z,31.00
2019-04-19T12:54:39.342Z,30.44
2019-04-19T12:57:07.873Z,30.35
2019-04-19T12:59:36.306Z,30.28
2019-04-19T13:02:06.420Z,31.17
2019-04-19T13:04:36.494Z,31.78
2019-04-19T13:07:06.538Z,31.03
2019-04-19T13:09:35.061Z,31.07
2019-04-19T13:12:04.951Z,30.60
2019-04-19T13:14:33.540Z,30.58
2019-04-19T13:17:02.177Z,30.68
2019-04-19T13:19:31.254Z,30.71
2019-04-19T13:22:00.596Z,31.34
2019-04-19T13:24:29.144Z,31.44
2019-04-19T13:26:57.581Z,31.29
2019-04-19T13:29:27.290Z,31.63
2019-04-19T13:31:56.757Z,31.25
2019-04-19T13:34:25.359Z,30.75
2019-04-19T13:36:55.501Z,30.48
2019-04-19T13:39:28.261Z,31.39
2019-04-19T13:41:58.957Z,31.53
2019-04-19T13:44:27.408Z,31.01
2019-04-19T13:46:55.847Z,30.94
2019-04-19T13:49:24.475Z,31.37
2019-04-19T13:51:53.036Z,31.20
2019-04-19T13:54:22.811Z,31.12
2019-04-19T13:56:52.630Z,31.10
2019-04-19T13:59:22.267Z,30.29
2019-04-19T14:01:52.428Z,30.63
2019-04-19T14:04:21.720Z,30.98
2019-04-19T14:06:50.647Z,30.73
2019-04-19T14:09:21.005Z,31.74
2019-04-19T14:11:49.576Z,30.93
2019-04-19T14:14:18.466Z,30.37
2019-04-19T14:16:47.911Z,30.78
2019-04-19T14:19:16.462Z,30.81
2019-04-19T14:21:44.929Z,30.09
2019-04-19T14:24:13.594Z,30.28
2019-04-19T14:26:48.678Z,30.97
2019-04-19T14:29:12.331Z,30.67
2019-04-19T14:31:42.042Z,30.48
2019-04-19T14:34:11.092Z,30.74
2019-04-19T14:36:40.180Z,31.04
2019-04-19T14:39:10.864Z,30.70
2019-04-19T14:41:41.286Z,30.45
2019-04-19T14:44:11.216Z,30.88
2019-04-19T14:46:40.971Z,30.87
2019-04-19T14:49:09.534Z,31.28
2019-04-19T14:51:40.781Z,30.98
2019-04-19T14:54:08.980Z,31.41
2019-04-19T14:56:37.553Z,31.22
2019-04-19T14:59:06.142Z,31.23
2019-04-19T15:01:51.285Z,31.24
2019-04-19T15:04:24.630Z,30.99
2019-04-19T15:06:53.563Z,31.02
2019-04-19T15:09:22.097Z,30.67
2019-04-19T15:11:50.534Z,31.24
2019-04-19T15:14:19.008Z,31.45
2019-04-19T15:16:47.579Z,31.35
2019-04-19T15:19:16.713Z,30.84
2019-04-19T15:21:46.076Z,30.90
2019-04-19T15:24:14.802Z,31.02
2019-04-19T15:26:43.255Z,31.47
2019-04-19T15:29:13.139Z,31.12
2019-04-19T15:31:42.024Z,31.25
2019-04-19T15:34:11.445Z,31.20
2019-04-19T15:36:40.035Z,31.26
2019-04-19T15:39:11.047Z,31.17
2019-04-19T15:41:40.122Z,31.18
2019-04-19T15:44:08.636Z,31.23
2019-04-19T15:46:37.824Z,31.17
2019-04-19T15:49:06.487Z,31.38
2019-04-19T15:51:38.898Z,31.29
2019-04-19T15:54:05.836Z,31.38
2019-04-19T15:56:34.426Z,31.89
2019-04-19T15:59:03.115Z,31.36
2019-04-19T16:01:34.321Z,31.63
2019-04-19T16:04:03.778Z,31.48
2019-04-19T16:06:36.609Z,31.61
2019-04-19T16:09:08.678Z,31.54
2019-04-19T16:11:50.547Z,31.76
2019-04-19T16:14:19.827Z,32.00
2019-04-19T16:16:49.064Z,32.53
2019-04-19T16:19:18.550Z,31.77
2019-04-19T16:21:52.520Z,32.37
2019-04-19T16:24:17.261Z,32.69
2019-04-19T16:26:46.849Z,32.34
2019-04-19T16:29:24.727Z,32.52
2019-04-19T16:31:46.752Z,33.62
2019-04-19T16:34:17.765Z,34.94
2019-04-19T16:36:45.741Z,36.02
2019-04-19T16:39:14.964Z,37.08
2019-04-19T16:41:44.824Z,37.50
2019-04-19T16:44:13.699Z,38.21
2019-04-19T16:46:43.388Z,38.34
2019-04-19T16:49:12.755Z,38.99
2019-04-19T16:51:47.008Z,39.39
2019-04-19T16:54:12.069Z,39.70
2019-04-19T16:56:41.790Z,39.61
2019-04-19T16:59:10.473Z,39.64
2019-04-19T17:01:39.011Z,39.60
2019-04-19T17:04:07.990Z,39.78
2019-04-19T17:06:36.559Z,39.10
2019-04-19T17:09:08.777Z,39.16
2019-04-19T17:11:37.633Z,38.86
2019-04-19T17:14:07.178Z,38.98
2019-04-19T17:16:48.993Z,38.85
2019-04-19T17:19:28.924Z,39.13
2019-04-19T17:22:08.428Z,39.08
2019-04-19T17:24:27.673Z,38.34
2019-04-19T17:26:56.075Z,38.35
2019-04-19T17:29:24.829Z,38.31
2019-04-19T17:31:54.218Z,37.92
2019-04-19T17:34:22.793Z,38.10
2019-04-19T17:36:51.500Z,38.12
2019-04-19T17:39:20.487Z,37.49
2019-04-19T17:41:50.474Z,36.91
2019-04-19T17:44:19.748Z,37.18
2019-04-19T17:46:48.807Z,36.60
2019-04-19T17:49:17.417Z,36.44
2019-04-19T17:51:57.791Z,36.33
2019-04-19T17:54:24.199Z,36.24
2019-04-19T17:56:47.178Z,36.13
2019-04-19T17:59:19.226Z,36.39
2019-04-19T18:01:46.323Z,36.36
2019-04-19T18:04:16.680Z,36.76
2019-04-19T18:06:50.972Z,36.82
2019-04-19T18:09:18.187Z,37.36
2019-04-19T18:11:45.370Z,37.73
2019-04-19T18:14:13.862Z,37.77
2019-04-19T18:16:42.863Z,38.22
2019-04-19T18:19:11.265Z,38.69
2019-04-19T18:21:42.179Z,39.33
2019-04-19T18:24:17.453Z,39.88
2019-04-19T18:26:41.213Z,40.61
2019-04-19T18:29:19.206Z,43.43
2019-04-19T18:31:46.759Z,41.10
2019-04-19T18:34:13.246Z,41.63
2019-04-19T18:36:46.031Z,43.95
2019-04-19T18:39:11.885Z,42.97
2019-04-19T18:41:41.116Z,42.99
2019-04-19T18:44:20.371Z,43.14
2019-04-19T18:46:40.737Z,44.93
2019-04-19T18:49:09.691Z,44.30
2019-04-19T18:51:43.013Z,46.68
2019-04-19T18:54:15.429Z,48.32
2019-04-19T18:56:38.537Z,47.61
2019-04-19T18:59:15.212Z,47.74
2019-04-19T19:01:39.460Z,48.28
2019-04-19T19:04:14.547Z,48.30
2019-04-19T19:06:41.465Z,48.76
2019-04-19T19:09:12.311Z,47.01
2019-04-19T19:11:38.335Z,48.02
2019-04-19T19:14:13.383Z,47.98
2019-04-19T19:16:39.484Z,47.80
2019-04-19T19:19:08.820Z,48.49
2019-04-19T19:21:41.797Z,48.76
2019-04-19T19:24:27.064Z,49.93
2019-04-19T19:26:53.366Z,48.33
2019-04-19T19:29:07.967Z,48.79
2019-04-19T19:31:36.739Z,49.48
2019-04-19T19:34:05.735Z,48.81
2019-04-19T19:36:42.160Z,49.14
2019-04-19T19:39:14.443Z,48.25
2019-04-19T19:42:24.861Z,48.91
2019-04-19T19:44:25.280Z,49.13
2019-04-19T19:47:10.739Z,47.30
2019-04-19T19:51:50.066Z,47.94
2019-04-19T19:54:43.554Z,46.47
2019-04-19T19:57:02.510Z,47.24
2019-04-19T19:59:22.736Z,46.44
2019-04-19T20:01:56.186Z,47.35
2019-04-19T20:04:13.103Z,46.32
2019-04-19T20:06:51.947Z,46.38
2019-04-19T20:09:15.182Z,45.96
2019-04-19T20:11:41.899Z,46.64
2019-04-19T20:14:17.076Z,46.94
2019-04-19T20:16:40.461Z,48.75
2019-04-19T20:19:13.193Z,47.29
2019-04-19T20:21:39.092Z,47.69
2019-04-19T20:24:16.783Z,49.13
2019-04-19T20:26:51.931Z,49.05
2019-04-19T20:29:16.933Z,50.08
2019-04-19T20:31:40.939Z,49.40
2019-04-19T20:34:08.834Z,50.11
2019-04-19T20:36:40.411Z,51.29
2019-04-19T20:39:07.812Z,51.60
2019-04-19T20:41:40.200Z,52.89
2019-04-19T20:44:19.358Z,53.75
2019-04-19T20:46:37.896Z,53.84
2019-04-19T20:49:08.351Z,55.40
2019-04-19T20:51:54.631Z,56.36
2019-04-19T20:54:41.577Z,56.79
2019-04-19T20:57:17.761Z,57.30
2019-04-19T20:59:35.814Z,59.64
2019-04-19T21:01:54.889Z,58.88
2019-04-19T21:04:24.787Z,59.17
2019-04-19T21:06:53.843Z,60.89
2019-04-19T21:09:26.847Z,61.71
2019-04-19T21:11:52.765Z,62.94
2019-04-19T21:14:27.622Z,62.13
2019-04-19T21:16:56.454Z,60.89
2019-04-19T21:19:22.424Z,63.62
2019-04-19T21:21:53.998Z,61.74
2019-04-19T21:24:22.533Z,62.99
2019-04-19T21:26:51.340Z,60.45
2019-04-19T21:29:24.101Z,60.44
2019-04-19T21:31:53.069Z,62.66
2019-04-19T21:34:24.705Z,61.20
2019-04-19T21:36:56.922Z,61.50
2019-04-19T21:39:20.673Z,61.46
2019-04-19T21:41:53.815Z,62.60
2019-04-19T21:44:22.583Z,61.58
2019-04-19T21:46:50.295Z,61.95
2019-04-19T21:49:21.473Z,62.12
2019-04-19T21:51:50.310Z,62.58
2019-04-19T21:54:18.961Z,63.30
2019-04-19T21:56:51.046Z,64.14
2019-04-19T21:59:21.641Z,65.19
2019-04-19T22:01:51.064Z,65.69
2019-04-19T22:04:18.805Z,66.92
2019-04-19T22:06:53.895Z,67.69
2019-04-19T22:09:21.777Z,68.09
2019-04-19T22:11:48.028Z,67.22
2019-04-19T22:14:21.117Z,67.51
2019-04-19T22:16:46.872Z,68.48
2019-04-19T22:19:21.584Z,69.70
2019-04-19T22:21:47.872Z,69.30
2019-04-19T22:24:22.100Z,70.78
2019-04-19T22:26:50.389Z,69.98
2019-04-19T22:29:17.535Z,72.35
2019-04-19T22:31:46.017Z,71.48
2019-04-19T22:34:14.775Z,74.55
2019-04-19T22:36:49.617Z,73.47
2019-04-19T22:39:13.783Z,75.77
2019-04-19T22:41:43.137Z,73.92
2019-04-19T22:44:12.501Z,74.18
2019-04-19T22:46:45.803Z,74.66
2019-04-19T22:49:13.182Z,75.92
2019-04-19T22:51:42.531Z,74.97
2019-04-19T22:54:11.081Z,76.05
2019-04-19T22:56:53.004Z,76.46
2019-04-19T22:59:14.482Z,79.64
2019-04-19T23:01:45.526Z,78.87
2019-04-19T23:04:19.173Z,79.78
2019-04-19T23:06:44.883Z,80.82
2019-04-19T23:09:17.694Z,81.59
2019-04-19T23:11:43.843Z,82.54
2019-04-19T23:14:13.594Z,82.93
2019-04-19T23:16:50.177Z,85.14
2019-04-19T23:19:14.545Z,84.16
2019-04-19T23:21:48.349Z,85.88
2019-04-19T23:24:16.150Z,84.88
2019-04-19T23:27:00.181Z,86.09
2019-04-19T23:29:20.889Z,85.83
2019-04-19T23:31:47.650Z,86.74
2019-04-19T23:34:14.186Z,90.42
2019-04-19T23:36:42.731Z,89.80
2019-04-19T23:39:14.154Z,86.53
2019-04-19T23:41:41.279Z,87.10
2019-04-19T23:44:13.416Z,89.13
2019-04-19T23:46:41.264Z,90.35
2019-04-19T23:49:13.504Z,91.84
2019-04-19T23:51:41.045Z,93.00
2019-04-19T23:54:16.426Z,93.93
2019-04-19T23:56:56.964Z,96.82
2019-04-19T23:59:15.522Z,97.02
